createdAt,value
2022-12-13T00:01:39.802Z,41.60
2022-12-13T00:06:41.543Z,34.13
2022-12-13T00:11:43.380Z,18.75
2022-12-13T00:16:47.213Z,24.17
2022-12-13T00:21:48.942Z,10.27
2022-12-13T00:26:50.531Z,8.60
2022-12-13T00:31:59.910Z,9.43
2022-12-13T00:37:02.297Z,11.93
2022-12-13T00:42:04.281Z,11.02
2022-12-13T00:47:05.908Z,13.88
2022-12-13T00:52:07.508Z,10.10
2022-12-13T00:57:09.130Z,9.45
2022-12-13T01:02:10.781Z,10.18
2022-12-13T01:07:12.688Z,8.68
2022-12-13T01:12:14.546Z,9.30
2022-12-13T01:17:16.158Z,10.02
2022-12-13T01:22:17.965Z,9.10
2022-12-13T01:27:19.654Z,9.43
2022-12-13T01:32:21.337Z,10.30
2022-12-13T01:37:26.020Z,10.45
2022-12-13T01:42:27.871Z,9.40
2022-12-13T01:47:44.777Z,10.30
2022-12-13T01:52:47.738Z,9.38
2022-12-13T01:57:55.879Z,9.80
2022-12-13T02:02:59.661Z,10.57
2022-12-13T02:08:03.375Z,9.88
2022-12-13T02:13:05.581Z,10.35
2022-12-13T02:18:32.524Z,10.15
2022-12-13T02:24:11.046Z,10.55
2022-12-13T02:29:31.600Z,10.75
2022-12-13T02:34:39.512Z,10.43
2022-12-13T02:45:01.436Z,9.43
2022-12-13T02:50:07.023Z,10.55
2022-12-13T02:55:14.346Z,9.60
2022-12-13T03:00:42.385Z,10.00
2022-12-13T03:06:24.331Z,9.30
2022-12-13T03:11:49.980Z,9.43
2022-12-13T03:16:54.614Z,10.10
2022-12-13T03:21:56.475Z,10.45
2022-12-13T03:26:58.386Z,10.32
2022-12-13T03:32:00.036Z,9.60
2022-12-13T03:37:01.699Z,10.00
2022-12-13T03:42:03.532Z,10.70
2022-12-13T03:47:05.196Z,10.13
2022-12-13T03:52:06.855Z,10.45
2022-12-13T03:57:08.441Z,9.95
2022-12-13T04:02:10.368Z,10.93
2022-12-13T04:07:22.127Z,10.60
2022-12-13T04:12:46.866Z,10.23
2022-12-13T04:17:51.061Z,10.73
2022-12-13T04:22:52.953Z,9.40
2022-12-13T04:27:54.563Z,11.15
2022-12-13T04:32:56.843Z,10.50
2022-12-13T04:37:58.673Z,10.73
2022-12-13T04:43:00.275Z,10.93
2022-12-13T04:48:01.911Z,13.25
2022-12-13T04:53:03.812Z,11.07
2022-12-13T04:58:05.426Z,9.80
2022-12-13T05:03:08.084Z,8.98
2022-12-13T05:08:09.765Z,9.75
2022-12-13T05:13:11.406Z,10.80
2022-12-13T05:18:13.066Z,10.13
2022-12-13T05:23:14.623Z,11.63
2022-12-13T05:28:28.969Z,11.15
2022-12-13T05:33:30.756Z,12.05
2022-12-13T05:38:32.596Z,12.35
2022-12-13T05:43:42.096Z,12.90
2022-12-13T05:48:45.142Z,12.15
2022-12-13T05:53:51.569Z,12.48
2022-12-13T05:58:55.014Z,13.57
2022-12-13T06:03:56.828Z,12.68
2022-12-13T06:08:59.418Z,16.40
2022-12-13T06:14:01.427Z,17.98
2022-12-13T06:19:04.672Z,15.50
2022-12-13T06:24:08.682Z,13.82
2022-12-13T06:29:11.128Z,19.60
2022-12-13T06:34:14.203Z,19.63
2022-12-13T06:39:17.759Z,14.57
2022-12-13T06:44:19.398Z,15.10
2022-12-13T06:49:21.087Z,21.67
2022-12-13T06:54:23.991Z,16.55
2022-12-13T06:59:25.780Z,15.75
2022-12-13T07:04:29.742Z,13.38
2022-12-13T07:09:33.112Z,12.73
2022-12-13T07:14:40.991Z,10.98
2022-12-13T07:19:43.473Z,12.55
2022-12-13T07:24:45.562Z,12.77
2022-12-13T07:29:47.148Z,9.43
2022-12-13T07:34:48.925Z,10.55
2022-12-13T07:39:50.534Z,9.50
2022-12-13T07:44:52.577Z,9.27
2022-12-13T07:49:54.161Z,9.43
2022-12-13T07:54:55.763Z,8.52
2022-12-13T07:59:58.154Z,8.15
2022-12-13T08:04:59.905Z,9.07
2022-12-13T08:10:22.097Z,8.90
2022-12-13T08:15:25.647Z,9.18
2022-12-13T08:20:27.499Z,9.27
2022-12-13T08:25:29.760Z,8.90
2022-12-13T08:30:32.554Z,10.23
2022-12-13T08:35:34.936Z,9.55
2022-12-13T08:40:37.528Z,10.30
2022-12-13T08:45:39.168Z,9.23
2022-12-13T08:50:40.734Z,9.77
2022-12-13T08:55:42.476Z,9.25
2022-12-13T09:00:46.288Z,9.15
2022-12-13T09:05:47.946Z,9.13
2022-12-13T09:11:00.232Z,9.15
2022-12-13T09:16:14.014Z,8.80
2022-12-13T09:21:22.323Z,9.02
2022-12-13T09:26:37.648Z,7.72
2022-12-13T09:31:41.107Z,6.57
2022-12-13T09:36:42.983Z,7.25
2022-12-13T09:41:49.478Z,6.72
2022-12-13T09:46:52.965Z,4.97
2022-12-13T09:52:10.791Z,7.03
2022-12-13T09:57:34.497Z,6.93
2022-12-13T10:02:46.750Z,6.22
2022-12-13T10:07:49.718Z,6.55
2022-12-13T10:13:31.341Z,7.10
2022-12-13T10:18:35.536Z,7.65
2022-12-13T10:23:59.757Z,8.20
2022-12-13T10:29:05.699Z,8.20
2022-12-13T10:34:21.347Z,8.00
2022-12-13T10:39:43.209Z,8.57
2022-12-13T10:44:45.926Z,8.38
2022-12-13T10:49:48.852Z,4.97
2022-12-13T10:54:51.456Z,5.05
2022-12-13T10:59:53.173Z,5.88
2022-12-13T11:04:54.865Z,6.55
2022-12-13T11:10:27.824Z,5.07
2022-12-13T11:15:31.104Z,5.47
2022-12-13T11:20:37.781Z,5.00
2022-12-13T11:25:41.663Z,4.18
2022-12-13T11:31:17.393Z,4.70
2022-12-13T11:36:57.756Z,4.80
2022-12-13T11:42:04.380Z,4.45
2022-12-13T11:47:12.834Z,4.90
2022-12-13T11:52:42.763Z,4.68
2022-12-13T11:57:47.019Z,5.75
2022-12-13T12:02:58.632Z,5.20
2022-12-13T12:13:51.355Z,4.78
2022-12-13T12:18:53.628Z,5.72
2022-12-13T12:24:44.415Z,4.95
2022-12-13T12:30:04.028Z,5.13
2022-12-13T12:35:17.381Z,5.45
2022-12-13T12:41:07.520Z,4.97
2022-12-13T12:47:17.686Z,5.50
2022-12-13T12:52:26.394Z,4.97
2022-12-13T12:57:48.997Z,5.00
2022-12-13T13:03:22.641Z,5.90
2022-12-13T13:08:32.314Z,6.55
2022-12-13T13:13:46.507Z,5.20
2022-12-13T13:18:52.422Z,5.55
2022-12-13T13:24:10.026Z,5.85
2022-12-13T13:29:27.750Z,6.18
2022-12-13T13:34:35.649Z,6.18
2022-12-13T13:39:54.462Z,6.03
2022-12-13T13:45:20.662Z,5.45
2022-12-13T13:50:54.429Z,6.03
2022-12-13T13:56:28.606Z,5.88
2022-12-13T14:01:30.786Z,6.35
2022-12-13T14:07:09.443Z,5.63
2022-12-13T14:12:45.427Z,6.32
2022-12-13T14:18:00.771Z,6.47
2022-12-13T14:23:44.190Z,6.65
2022-12-13T14:28:51.951Z,7.00
2022-12-13T14:33:56.057Z,6.47
2022-12-13T14:39:24.602Z,6.18
2022-12-13T14:44:30.118Z,6.50
2022-12-13T14:49:35.998Z,6.85
2022-12-13T14:55:05.855Z,6.88
2022-12-13T15:00:30.827Z,8.77
2022-12-13T15:05:35.268Z,8.38
2022-12-13T15:10:36.800Z,8.88
2022-12-13T15:15:39.106Z,8.50
2022-12-13T15:20:41.808Z,8.88
2022-12-13T15:26:27.697Z,9.77
2022-12-13T15:31:34.552Z,9.95
2022-12-13T15:36:38.428Z,9.23
2022-12-13T15:41:46.786Z,9.23
2022-12-13T15:46:51.252Z,9.20
2022-12-13T15:51:57.925Z,8.73
2022-12-13T15:57:15.949Z,8.40
2022-12-13T16:02:22.247Z,9.48
2022-12-13T16:07:38.072Z,9.60
2022-12-13T16:12:48.146Z,9.70
2022-12-13T16:17:53.228Z,8.95
2022-12-13T16:22:54.854Z,9.45
2022-12-13T16:28:01.628Z,8.55
2022-12-13T16:33:18.743Z,9.63
2022-12-13T16:38:26.432Z,9.73
2022-12-13T16:43:34.329Z,11.35
2022-12-13T16:48:36.565Z,11.20
2022-12-13T16:53:38.214Z,10.38
2022-12-13T16:58:43.416Z,11.43
2022-12-13T17:08:49.658Z,12.10
2022-12-13T17:13:51.572Z,12.35
2022-12-13T17:18:55.797Z,11.70
2022-12-13T17:23:59.436Z,12.32
2022-12-13T17:29:01.320Z,12.13
2022-12-13T17:34:04.036Z,15.38
2022-12-13T17:39:05.626Z,13.00
2022-12-13T17:44:07.481Z,13.90
2022-12-13T17:49:09.166Z,13.02
2022-12-13T17:54:11.816Z,13.63
2022-12-13T17:59:15.300Z,12.40
2022-12-13T18:04:17.404Z,12.15
2022-12-13T18:09:19.076Z,12.77
2022-12-13T18:14:20.926Z,14.05
2022-12-13T18:19:24.017Z,14.30
2022-12-13T18:24:25.977Z,12.18
2022-12-13T18:29:27.929Z,12.20
2022-12-13T18:34:29.639Z,13.38
2022-12-13T18:39:31.637Z,14.05
2022-12-13T18:44:33.470Z,12.93
2022-12-13T18:49:35.249Z,14.32
2022-12-13T18:54:36.905Z,12.98
2022-12-13T18:59:38.500Z,14.23
2022-12-13T19:04:41.010Z,13.30
2022-12-13T19:09:56.700Z,14.45
2022-12-13T19:14:58.901Z,14.18
2022-12-13T19:20:02.197Z,14.25
2022-12-13T19:25:04.131Z,14.60
2022-12-13T19:30:06.405Z,14.20
2022-12-13T19:35:08.477Z,15.35
2022-12-13T19:40:10.480Z,15.55
2022-12-13T19:45:12.261Z,15.35
2022-12-13T19:50:13.863Z,14.52
2022-12-13T19:55:15.514Z,17.40
2022-12-13T20:00:17.610Z,16.20
2022-12-13T20:05:19.871Z,15.82
2022-12-13T20:10:21.460Z,16.55
2022-12-13T20:15:23.104Z,16.05
2022-12-13T20:20:31.443Z,17.00
2022-12-13T20:25:37.938Z,17.60
2022-12-13T20:30:39.532Z,15.85
2022-12-13T20:36:07.441Z,16.98
2022-12-13T20:41:06.041Z,18.10
2022-12-13T20:46:13.369Z,18.13
2022-12-13T20:51:20.363Z,17.00
2022-12-13T20:56:27.032Z,12.43
2022-12-13T21:01:31.392Z,17.90
2022-12-13T21:06:36.077Z,16.63
2022-12-13T21:11:40.499Z,16.50
2022-12-13T21:16:47.349Z,18.55
2022-12-13T21:21:49.584Z,18.60
2022-12-13T21:26:52.467Z,18.75
2022-12-13T21:31:54.828Z,17.48
2022-12-13T21:36:57.277Z,19.35
2022-12-13T21:41:58.945Z,16.83
2022-12-13T21:47:15.863Z,19.17
2022-12-13T21:52:17.752Z,18.88
2022-12-13T21:57:38.120Z,19.55
2022-12-13T22:02:39.862Z,18.73
2022-12-13T22:07:41.554Z,19.95
2022-12-13T22:12:43.127Z,19.38
2022-12-13T22:17:44.712Z,19.55
2022-12-13T22:22:48.614Z,17.90
2022-12-13T22:27:50.275Z,18.63
2022-12-13T22:32:53.915Z,19.77
2022-12-13T22:38:00.122Z,39.40
2022-12-13T22:43:03.059Z,19.15
2022-12-13T22:48:05.213Z,26.98
2022-12-13T22:53:06.902Z,18.90
2022-12-13T22:58:08.486Z,19.00
2022-12-13T23:03:10.122Z,17.05
2022-12-13T23:08:11.815Z,16.60
2022-12-13T23:13:14.211Z,18.42
2022-12-13T23:18:15.860Z,18.60
2022-12-13T23:23:17.462Z,18.05
2022-12-13T23:28:19.122Z,17.15
2022-12-13T23:33:20.925Z,18.27
2022-12-13T23:38:22.504Z,18.80
2022-12-13T23:43:24.133Z,18.10
2022-12-13T23:48:27.115Z,18.98
2022-12-13T23:53:29.433Z,19.42
2022-12-13T23:58:31.062Z,19.10
